Time;durP1;ratioP1;P1;durP2;ratioP2;P2;SDS_P1;SDS_P2;PMS_P1;PMS_P2;Temp;Humidity;BMP_temperature;BMP_pressure;BME280_temperature;BME280_humidity;BME280_pressure;Samples;Min_cycle;Max_cycle;Signal;HPM_P1;HPM_P2
2023/03/24 00:02:12;;;;;;;10.27;3.97;;;10.30;99.90;;;;;;5084892;28;20056;-42
2023/03/24 00:04:41;;;;;;;8.13;4.75;;;10.30;99.90;;;;;;5067459;28;20099;-42
2023/03/24 00:07:13;;;;;;;15.52;4.68;;;10.20;99.90;;;;;;5085216;28;20052;-42
2023/03/24 00:09:39;;;;;;;16.30;5.13;;;10.20;99.90;;;;;;5085308;28;20040;-41
2023/03/24 00:12:05;;;;;;;12.77;4.50;;;10.30;99.90;;;;;;5085715;28;20048;-42
2023/03/24 00:14:31;;;;;;;10.98;4.72;;;10.20;99.90;;;;;;5084769;28;20066;-42
2023/03/24 00:16:58;;;;;;;17.25;5.05;;;10.00;99.90;;;;;;5085422;28;20046;-43
2023/03/24 00:19:24;;;;;;;12.85;4.90;;;10.20;99.90;;;;;;5085439;28;20036;-42
2023/03/24 00:21:50;;;;;;;11.90;4.95;;;10.30;99.90;;;;;;5085228;28;20036;-41
2023/03/24 00:24:15;;;;;;;13.10;4.43;;;10.20;99.90;;;;;;5084788;28;20360;-41
2023/03/24 00:26:41;;;;;;;9.80;4.68;;;10.20;99.90;;;;;;5085080;28;20032;-42
2023/03/24 00:29:10;;;;;;;13.23;4.90;;;10.30;99.90;;;;;;5084977;28;20051;-43
2023/03/24 00:31:38;;;;;;;15.95;5.22;;;10.20;99.90;;;;;;5084825;28;20374;-42
2023/03/24 00:34:07;;;;;;;14.07;5.43;;;10.30;99.90;;;;;;5084763;28;20040;-43
2023/03/24 00:36:33;;;;;;;12.10;4.75;;;10.20;99.90;;;;;;5084527;28;20466;-41
2023/03/24 00:38:59;;;;;;;15.00;5.13;;;10.20;99.90;;;;;;5085272;28;20036;-42
2023/03/24 00:41:26;;;;;;;12.00;4.38;;;10.20;99.90;;;;;;5085347;28;20128;-41
2023/03/24 00:43:55;;;;;;;14.48;4.93;;;10.30;99.90;;;;;;5084482;28;20079;-42
2023/03/24 00:46:27;;;;;;;11.45;4.18;;;10.20;99.90;;;;;;5084631;28;20051;-42
2023/03/24 00:49:01;;;;;;;12.48;5.15;;;10.20;99.90;;;;;;5084775;28;20048;-41
2023/03/24 00:51:34;;;;;;;13.10;4.88;;;10.20;99.90;;;;;;5085084;28;20939;-42
2023/03/24 00:54:01;;;;;;;11.23;4.65;;;10.30;99.90;;;;;;5084714;28;20039;-41
2023/03/24 00:56:29;;;;;;;11.05;4.88;;;10.20;99.90;;;;;;5085148;28;20485;-42
2023/03/24 00:58:56;;;;;;;12.88;4.60;;;10.30;99.90;;;;;;5084869;28;20059;-42
2023/03/24 01:01:28;;;;;;;12.70;5.30;;;10.20;99.90;;;;;;5084640;28;20067;-42
2023/03/24 01:03:55;;;;;;;12.23;4.93;;;10.30;99.90;;;;;;5085611;28;20044;-42
2023/03/24 01:06:23;;;;;;;11.40;5.32;;;10.30;99.90;;;;;;5089270;28;20136;-42
2023/03/24 01:08:52;;;;;;;14.13;5.55;;;10.20;99.90;;;;;;5069819;28;20086;-43
2023/03/24 01:11:23;;;;;;;11.02;4.60;;;10.30;99.90;;;;;;5088697;28;20044;-42
2023/03/24 01:13:50;;;;;;;11.98;4.63;;;10.30;99.90;;;;;;5088266;28;20523;-42
2023/03/24 01:16:16;;;;;;;15.20;5.30;;;10.30;99.90;;;;;;5088735;28;20044;-42
2023/03/24 01:18:42;;;;;;;14.77;5.55;;;10.20;99.90;;;;;;5088137;28;20044;-41
2023/03/24 01:21:10;;;;;;;14.43;5.68;;;10.30;99.90;;;;;;5088983;28;20101;-41
2023/03/24 01:23:36;;;;;;;10.98;5.95;;;10.30;99.90;;;;;;5087894;28;20044;-41
2023/03/24 01:26:08;;;;;;;13.52;5.28;;;10.30;99.90;;;;;;5088048;28;20028;-41
2023/03/24 01:28:39;;;;;;;16.50;5.78;;;10.30;99.90;;;;;;5088277;28;20084;-42
2023/03/24 01:31:06;;;;;;;10.33;5.30;;;10.60;99.90;;;;;;5088634;28;20035;-42
2023/03/24 01:33:32;;;;;;;12.82;5.78;;;10.50;99.90;;;;;;5088155;28;20047;-41
2023/03/24 01:35:58;;;;;;;11.05;5.50;;;10.00;99.90;;;;;;5088312;28;20103;-42
2023/03/24 01:38:23;;;;;;;11.57;4.65;;;10.70;99.90;;;;;;5088505;28;20378;-42
2023/03/24 01:40:49;;;;;;;11.13;5.05;;;10.30;99.90;;;;;;5088018;28;20048;-41
2023/03/24 01:43:19;;;;;;;10.73;5.18;;;10.20;99.90;;;;;;5088391;28;20063;-42
2023/03/24 01:46:05;;;;;;;11.80;5.53;;;10.30;99.90;;;;;;5088085;28;20122;-42
2023/03/24 01:49:06;;;;;;;12.05;5.15;;;10.30;99.90;;;;;;5088188;28;20697;-41
2023/03/24 01:51:36;;;;;;;12.93;5.10;;;10.30;99.90;;;;;;5074490;28;20044;-42
2023/03/24 01:54:37;;;;;;;10.48;5.55;;;10.30;99.90;;;;;;5087387;28;20733;-42
2023/03/24 01:57:08;;;;;;;14.40;5.07;;;10.40;99.90;;;;;;5088246;28;20119;-41
2023/03/24 01:59:38;;;;;;;10.00;5.05;;;10.30;99.90;;;;;;5088125;28;20101;-42
2023/03/24 02:02:05;;;;;;;11.45;5.57;;;10.40;99.90;;;;;;5087726;28;20064;-43
2023/03/24 02:04:37;;;;;;;10.80;5.40;;;10.40;99.90;;;;;;5087785;28;20508;-44
2023/03/24 02:07:18;;;;;;;13.00;5.20;;;10.30;99.90;;;;;;5087616;28;20080;-42
2023/03/24 02:09:45;;;;;;;11.52;5.53;;;10.40;99.90;;;;;;5087585;28;20050;-42
2023/03/24 02:12:12;;;;;;;8.65;5.15;;;;;;;;;;5088146;28;20035;-41
2023/03/24 02:14:38;;;;;;;12.13;5.63;;;10.40;99.90;;;;;;5087983;28;20040;-41
2023/03/24 02:17:28;;;;;;;12.10;5.47;;;10.20;99.90;;;;;;5087132;28;20036;-42
2023/03/24 02:20:12;;;;;;;11.18;5.70;;;10.40;99.90;;;;;;5087460;28;20774;-41
2023/03/24 02:23:02;;;;;;;13.10;6.25;;;10.40;99.90;;;;;;5088320;28;20028;-41
2023/03/24 02:26:18;;;;;;;21.75;7.63;;;10.40;99.90;;;;;;5087238;28;20033;-41
2023/03/24 02:28:59;;;;;;;9.50;6.28;;;10.40;99.90;;;;;;5044908;28;20171;-42
2023/03/24 02:31:28;;;;;;;13.10;6.45;;;10.40;99.90;;;;;;5088552;28;20046;-43
2023/03/24 02:34:27;;;;;;;8.57;5.55;;;10.40;99.90;;;;;;5087930;28;20052;-42
2023/03/24 02:37:13;;;;;;;10.95;5.65;;;10.40;99.90;;;;;;5087561;28;20040;-43
2023/03/24 02:39:57;;;;;;;15.45;6.18;;;10.50;99.90;;;;;;5069562;28;20457;-42
2023/03/24 02:42:32;;;;;;;9.55;5.95;;;10.50;99.90;;;;;;5088258;28;20044;-42
2023/03/24 02:45:29;;;;;;;12.15;6.40;;;10.50;99.90;;;;;;5087251;28;20060;-42
2023/03/24 02:48:25;;;;;;;11.07;6.20;;;10.50;99.90;;;;;;5087207;28;20047;-42
2023/03/24 02:51:24;;;;;;;9.70;5.75;;;10.50;99.90;;;;;;5086508;28;20043;-46
2023/03/24 02:54:08;;;;;;;10.90;5.78;;;10.50;99.90;;;;;;5086680;28;20047;-43
2023/03/24 02:56:57;;;;;;;10.80;5.70;;;10.50;99.90;;;;;;5085656;28;20044;-41
2023/03/24 02:59:37;;;;;;;9.88;5.53;;;10.50;99.90;;;;;;5087099;28;20073;-41
2023/03/24 03:02:08;;;;;;;11.85;6.03;;;10.50;99.90;;;;;;5086451;28;20075;-42
2023/03/24 03:04:59;;;;;;;11.65;6.18;;;10.50;99.90;;;;;;5086901;28;20233;-42
2023/03/24 03:07:29;;;;;;;12.30;6.00;;;10.50;99.90;;;;;;5087385;28;20040;-41
2023/03/24 03:09:59;;;;;;;10.23;5.13;;;10.50;99.90;;;;;;5087119;28;20040;-41
2023/03/24 03:12:29;;;;;;;11.30;5.75;;;10.60;99.90;;;;;;5086889;28;20032;-42
2023/03/24 03:15:00;;;;;;;10.95;6.03;;;10.60;99.90;;;;;;5086907;28;20032;-41
2023/03/24 03:17:39;;;;;;;11.70;6.78;;;10.60;99.90;;;;;;5087060;28;20040;-42
2023/03/24 03:20:19;;;;;;;12.57;6.32;;;10.60;99.90;;;;;;5086620;28;20067;-42
2023/03/24 03:22:57;;;;;;;10.15;5.50;;;10.60;99.90;;;;;;5087254;28;20051;-41
2023/03/24 03:25:27;;;;;;;12.50;6.22;;;10.60;99.90;;;;;;5086933;28;20044;-42
2023/03/24 03:27:57;;;;;;;10.27;6.07;;;10.60;99.90;;;;;;5085750;28;20036;-40
2023/03/24 03:30:36;;;;;;;8.77;6.07;;;10.70;99.90;;;;;;5086556;28;20036;-42
2023/03/24 03:33:10;;;;;;;11.35;5.80;;;10.70;99.90;;;;;;5086328;28;20040;-41
2023/03/24 03:35:43;;;;;;;9.77;5.38;;;10.80;99.90;;;;;;5086309;28;20034;-41
2023/03/24 03:38:18;;;;;;;9.27;6.15;;;10.70;99.90;;;;;;5086528;28;20228;-43
2023/03/24 03:40:53;;;;;;;11.07;6.40;;;10.70;99.90;;;;;;5086373;28;20028;-43
2023/03/24 03:43:19;;;;;;;8.90;6.35;;;10.70;99.90;;;;;;5085760;28;20058;-43
2023/03/24 03:45:45;;;;;;;11.75;6.78;;;10.70;99.90;;;;;;5067577;28;20093;-42
2023/03/24 03:48:11;;;;;;;9.60;6.10;;;10.70;99.90;;;;;;5085616;28;20042;-43
2023/03/24 03:50:37;;;;;;;8.43;5.82;;;10.80;99.90;;;;;;5085353;28;20040;-42
2023/03/24 03:53:05;;;;;;;13.90;6.75;;;10.70;99.90;;;;;;5085906;28;20085;-42
2023/03/24 03:55:32;;;;;;;9.25;5.18;;;10.80;99.90;;;;;;5085126;28;20058;-41
2023/03/24 03:57:58;;;;;;;5.40;2.67;;;10.80;99.90;;;;;;5085385;28;20055;-41
2023/03/24 04:00:24;;;;;;;5.32;2.67;;;10.80;99.90;;;;;;5067251;28;20040;-42
2023/03/24 04:03:21;;;;;;;6.63;2.63;;;10.70;99.90;;;;;;5085813;28;20119;-41
2023/03/24 04:06:00;;;;;;;5.00;2.30;;;10.70;99.90;;;;;;5085894;28;20035;-42
2023/03/24 04:08:37;;;;;;;2.60;1.67;;;10.60;99.90;;;;;;5086177;28;20044;-42
2023/03/24 04:11:21;;;;;;;4.72;2.38;;;10.50;99.90;;;;;;5085530;28;20457;-42
2023/03/24 04:14:24;;;;;;;3.83;1.95;;;10.30;99.90;;;;;;5085421;28;20040;-42
2023/03/24 04:17:01;;;;;;;;;;;10.60;99.90;;;;;;5085842;28;20044;-41
2023/03/24 04:19:36;;;;;;;5.22;1.40;;;10.20;99.90;;;;;;5085301;28;19916;-41
2023/03/24 04:22:22;;;;;;;4.65;1.17;;;10.00;99.90;;;;;;5085340;28;20036;-41
2023/03/24 04:24:58;;;;;;;5.20;1.08;;;9.90;99.90;;;;;;5085699;28;20141;-41
2023/03/24 04:27:38;;;;;;;6.90;1.80;;;9.70;99.90;;;;;;5085116;28;20044;-41
2023/03/24 04:30:24;;;;;;;6.78;1.58;;;9.60;99.90;;;;;;5085270;28;20745;-42
2023/03/24 04:32:52;;;;;;;5.90;0.98;;;9.50;99.90;;;;;;5085071;28;20036;-41
2023/03/24 04:35:35;;;;;;;5.28;1.33;;;9.50;99.90;;;;;;5084751;28;20044;-42
2023/03/24 04:38:09;;;;;;;6.22;1.35;;;9.30;99.90;;;;;;5085322;28;20051;-42
2023/03/24 04:40:40;;;;;;;6.43;1.08;;;9.40;99.90;;;;;;5088556;28;20482;-42
2023/03/24 04:43:10;;;;;;;5.97;0.95;;;9.30;99.90;;;;;;5089025;28;20089;-42
2023/03/24 04:45:36;;;;;;;9.77;1.50;;;9.90;99.90;;;;;;5089034;28;20044;-42
2023/03/24 04:48:05;;;;;;;13.07;2.05;;;9.50;99.90;;;;;;5088580;28;20044;-41
2023/03/24 04:50:37;;;;;;;5.13;0.93;;;9.30;99.90;;;;;;5089043;28;20044;-42
2023/03/24 04:53:04;;;;;;;9.57;1.50;;;9.80;99.90;;;;;;5088973;28;20474;-42
2023/03/24 04:55:45;;;;;;;6.82;1.33;;;9.40;99.90;;;;;;5089183;28;20040;-43
2023/03/24 04:58:10;;;;;;;5.18;1.00;;;9.10;99.90;;;;;;5088820;28;20662;-42
2023/03/24 05:00:36;;;;;;;7.20;1.50;;;9.30;99.90;;;;;;5088629;28;20378;-42
2023/03/24 05:03:03;;;;;;;4.35;0.60;;;9.30;99.90;;;;;;5089022;28;20083;-41
2023/03/24 05:05:28;;;;;;;5.55;1.00;;;8.90;99.90;;;;;;5088770;28;20051;-42
2023/03/24 05:07:55;;;;;;;11.88;1.20;;;9.20;99.90;;;;;;5088504;28;20044;-42
2023/03/24 05:10:22;;;;;;;4.97;1.00;;;9.50;99.90;;;;;;5088419;28;20040;-41
2023/03/24 05:12:48;;;;;;;6.00;0.98;;;9.00;99.90;;;;;;5089051;28;20447;-41
2023/03/24 05:15:14;;;;;;;9.23;1.05;;;9.00;99.90;;;;;;5088984;28;20089;-41
2023/03/24 05:17:39;;;;;;;7.93;1.10;;;8.80;99.90;;;;;;5088442;28;20382;-41
2023/03/24 05:20:09;;;;;;;4.10;0.88;;;8.90;99.90;;;;;;5088674;28;20075;-42
2023/03/24 05:22:36;;;;;;;7.30;0.98;;;8.80;99.90;;;;;;5088074;28;20044;-42
2023/03/24 05:25:03;;;;;;;10.48;1.52;;;9.10;99.90;;;;;;5088582;28;20048;-42
2023/03/24 05:27:29;;;;;;;10.52;1.02;;;8.80;99.90;;;;;;5088360;28;20040;-42
2023/03/24 05:29:55;;;;;;;14.40;2.20;;;8.70;99.90;;;;;;5088406;28;20466;-42
2023/03/24 05:32:20;;;;;;;8.48;1.23;;;8.90;99.90;;;;;;5088418;28;20047;-42
2023/03/24 05:34:47;;;;;;;9.82;1.25;;;9.20;99.90;;;;;;5070435;28;20048;-42
2023/03/24 05:37:15;;;;;;;7.10;0.88;;;8.70;99.90;;;;;;5086770;28;20051;-42
2023/03/24 05:39:41;;;;;;;8.90;0.95;;;8.60;99.90;;;;;;5088035;28;20040;-41
2023/03/24 05:42:07;;;;;;;11.00;1.80;;;8.60;99.90;;;;;;5088178;28;20043;-42
2023/03/24 05:44:33;;;;;;;10.75;1.38;;;8.90;99.90;;;;;;5088145;28;20043;-42
2023/03/24 05:46:58;;;;;;;13.77;1.30;;;9.30;99.90;;;;;;5087840;28;20051;-42
2023/03/24 05:49:24;;;;;;;10.48;1.55;;;8.70;99.90;;;;;;5087984;28;20047;-42
2023/03/24 05:51:50;;;;;;;10.18;1.75;;;8.60;99.90;;;;;;5086869;28;20521;-41
2023/03/24 05:54:15;;;;;;;12.73;2.47;;;8.70;99.90;;;;;;5087572;28;20049;-42
2023/03/24 05:56:41;;;;;;;15.18;2.53;;;7.10;99.90;;;;;;5086903;28;20082;-42
2023/03/24 05:59:07;;;;;;;14.02;2.75;;;8.60;99.90;;;;;;5087175;28;20032;-42
2023/03/24 06:01:33;;;;;;;15.40;2.65;;;8.60;99.90;;;;;;5085854;28;20060;-43
2023/03/24 06:03:58;;;;;;;5.90;1.27;;;8.60;99.90;;;;;;5087803;28;20068;-43
2023/03/24 06:06:25;;;;;;;16.40;1.83;;;8.70;99.90;;;;;;5086858;28;20074;-42
2023/03/24 06:08:54;;;;;;;11.27;1.67;;;9.10;99.90;;;;;;5087472;28;20138;-43
2023/03/24 06:11:20;;;;;;;11.55;2.55;;;8.40;99.90;;;;;;5087284;28;20044;-41
2023/03/24 06:13:45;;;;;;;16.50;2.88;;;8.70;99.90;;;;;;5087534;28;20352;-43
2023/03/24 06:16:11;;;;;;;11.00;2.20;;;8.50;99.90;;;;;;5087511;28;20040;-42
2023/03/24 06:18:39;;;;;;;11.93;1.95;;;8.50;99.90;;;;;;5086915;28;20055;-42
2023/03/24 06:21:06;;;;;;;9.98;1.77;;;8.50;99.90;;;;;;5087446;28;20044;-41
2023/03/24 06:23:32;;;;;;;15.07;1.77;;;8.60;99.90;;;;;;5087363;28;20052;-42
2023/03/24 06:26:00;;;;;;;14.55;2.00;;;8.90;99.90;;;;;;5087423;28;20151;-41
2023/03/24 06:28:29;;;;;;;7.18;1.10;;;8.90;99.90;;;;;;5069207;28;20054;-41
2023/03/24 06:30:57;;;;;;;12.57;1.15;;;8.60;99.90;;;;;;5087185;28;20619;-42
2023/03/24 06:33:24;;;;;;;9.27;0.93;;;8.70;99.90;;;;;;5087040;28;20342;-41
2023/03/24 06:35:53;;;;;;;11.43;1.60;;;8.70;99.90;;;;;;5087243;28;20059;-41
2023/03/24 06:38:19;;;;;;;11.90;1.13;;;8.70;99.90;;;;;;5069671;28;20732;-42
2023/03/24 06:40:45;;;;;;;11.38;1.30;;;8.70;99.90;;;;;;5087522;28;20039;-42
2023/03/24 06:43:10;;;;;;;13.80;1.80;;;8.80;99.90;;;;;;5087164;28;20058;-41
2023/03/24 06:45:38;;;;;;;10.68;1.25;;;8.80;99.90;;;;;;5086369;28;20035;-41
2023/03/24 06:48:04;;;;;;;12.02;1.42;;;8.90;99.90;;;;;;5086241;28;20514;-42
2023/03/24 06:50:33;;;;;;;12.10;1.50;;;8.90;99.90;;;;;;5086746;28;20085;-42
2023/03/24 06:52:59;;;;;;;6.43;0.77;;;8.90;99.90;;;;;;5087024;28;20042;-41
2023/03/24 06:55:25;;;;;;;11.25;1.20;;;8.90;99.90;;;;;;5087228;28;20229;-41
2023/03/24 06:57:51;;;;;;;9.23;1.65;;;9.10;99.90;;;;;;5086548;28;20044;-42
2023/03/24 07:00:18;;;;;;;12.30;1.25;;;9.00;99.90;;;;;;5068593;28;20083;-43
2023/03/24 07:02:44;;;;;;;8.25;1.17;;;9.00;99.90;;;;;;5086394;28;20064;-42
2023/03/24 07:05:11;;;;;;;14.38;1.42;;;9.30;99.90;;;;;;5086619;28;20101;-42
2023/03/24 07:07:37;;;;;;;10.85;1.75;;;9.00;99.90;;;;;;5068433;28;20386;-41
2023/03/24 07:10:05;;;;;;;9.65;1.25;;;9.00;99.90;;;;;;5086980;28;20044;-42
2023/03/24 07:12:30;;;;;;;12.80;1.80;;;9.10;99.90;;;;;;5086679;28;20036;-43
2023/03/24 07:14:57;;;;;;;5.97;0.98;;;9.10;99.90;;;;;;5086513;28;20558;-42
2023/03/24 07:17:22;;;;;;;15.43;1.60;;;9.50;99.90;;;;;;5086399;28;20147;-42
2023/03/24 07:19:48;;;;;;;10.60;1.35;;;9.10;99.90;;;;;;5086045;28;20143;-41
2023/03/24 07:22:14;;;;;;;9.05;1.20;;;9.90;99.90;;;;;;5086450;28;20407;-42
2023/03/24 07:24:40;;;;;;;13.63;1.50;;;6.20;99.90;;;;;;5086154;28;20048;-42
2023/03/24 07:27:06;;;;;;;10.27;1.00;;;9.40;99.90;;;;;;5086233;28;20047;-44
2023/03/24 07:29:32;;;;;;;14.98;2.25;;;9.30;99.90;;;;;;5085533;28;20489;-43
2023/03/24 07:31:59;;;;;;;14.38;1.27;;;9.30;99.90;;;;;;5067465;28;20119;-41
2023/03/24 07:34:26;;;;;;;9.02;1.25;;;9.60;99.90;;;;;;5085612;28;20143;-42
2023/03/24 07:36:52;;;;;;;8.45;1.27;;;9.40;99.90;;;;;;5086184;28;20059;-42
2023/03/24 07:39:18;;;;;;;10.48;0.90;;;9.40;99.90;;;;;;5085970;28;20422;-41
2023/03/24 07:41:43;;;;;;;7.90;1.35;;;9.50;99.90;;;;;;5085779;28;20046;-41
2023/03/24 07:44:09;;;;;;;13.43;1.10;;;10.10;99.90;;;;;;5085876;28;20043;-42
2023/03/24 07:46:36;;;;;;;11.80;1.13;;;10.10;99.90;;;;;;5084971;28;20681;-41
2023/03/24 07:49:01;;;;;;;12.98;1.52;;;9.60;99.90;;;;;;5085174;28;20063;-41
2023/03/24 07:51:27;;;;;;;9.07;1.17;;;9.70;99.90;;;;;;5085931;28;20474;-42
2023/03/24 07:53:53;;;;;;;11.43;1.27;;;10.20;99.90;;;;;;5085588;28;20036;-41
2023/03/24 07:56:20;;;;;;;10.10;2.03;;;10.30;99.90;;;;;;5084789;28;20661;-42
2023/03/24 07:58:46;;;;;;;11.95;0.98;;;10.30;99.90;;;;;;5083498;28;20034;-43
2023/03/24 08:01:12;;;;;;;13.88;1.73;;;10.00;99.90;;;;;;5083819;28;20143;-42
2023/03/24 08:03:39;;;;;;;13.07;1.13;;;10.40;99.90;;;;;;5084669;28;20605;-43
2023/03/24 08:06:07;;;;;;;16.20;1.88;;;9.90;99.90;;;;;;5085396;28;20055;-42
2023/03/24 08:08:33;;;;;;;11.93;1.38;;;10.00;99.90;;;;;;5084976;28;20127;-42
2023/03/24 08:10:59;;;;;;;11.20;1.58;;;10.60;99.90;;;;;;5085282;28;20040;-42
2023/03/24 08:13:25;;;;;;;13.48;1.45;;;10.60;99.90;;;;;;5085980;28;20051;-43
2023/03/24 08:15:52;;;;;;;10.57;1.10;;;10.60;99.90;;;;;;5091593;28;20035;-42
2023/03/24 08:18:23;;;;;;;20.73;2.13;;;10.70;99.90;;;;;;5091906;28;20123;-41
2023/03/24 08:20:50;;;;;;;10.95;1.13;;;11.00;99.90;;;;;;5091801;28;20055;-43
2023/03/24 08:23:18;;;;;;;17.95;3.15;;;11.20;99.90;;;;;;5092622;28;20122;-42
2023/03/24 08:25:46;;;;;;;13.48;2.25;;;11.00;99.90;;;;;;5092803;28;20051;-42
2023/03/24 08:28:11;;;;;;;11.15;1.70;;;11.70;99.90;;;;;;5092228;28;20044;-42
2023/03/24 08:30:37;;;;;;;11.75;1.48;;;11.00;99.90;;;;;;5091638;28;20120;-42
2023/03/24 08:33:03;;;;;;;12.82;1.27;;;11.00;99.90;;;;;;5092366;28;20032;-42
2023/03/24 08:35:32;;;;;;;16.75;1.45;;;11.80;99.90;;;;;;5091951;28;20052;-42
2023/03/24 08:37:58;;;;;;;20.27;2.25;;;;;;;;;;5092509;28;20836;-42
2023/03/24 08:40:25;;;;;;;14.68;2.10;;;10.90;99.90;;;;;;5092041;28;20394;-41
2023/03/24 08:42:59;;;;;;;10.25;2.08;;;10.80;99.90;;;;;;5091536;28;20535;-41
2023/03/24 08:45:29;;;;;;;7.85;1.40;;;10.70;99.90;;;;;;5092198;28;20111;-41
2023/03/24 08:47:57;;;;;;;10.68;1.35;;;10.70;99.90;;;;;;5092131;28;20043;-42
2023/03/24 08:50:26;;;;;;;10.80;2.03;;;10.70;99.90;;;;;;5072937;28;20048;-41
2023/03/24 08:52:54;;;;;;;12.48;1.55;;;10.60;99.90;;;;;;5091495;28;20044;-41
2023/03/24 08:55:20;;;;;;;10.45;1.55;;;10.60;99.90;;;;;;5091933;28;20040;-42
2023/03/24 08:57:47;;;;;;;7.38;1.27;;;13.20;99.90;;;;;;5091378;28;20489;-41
2023/03/24 09:00:15;;;;;;;11.30;1.80;;;11.30;99.90;;;;;;5091540;28;20119;-41
2023/03/24 09:02:42;;;;;;;10.00;1.63;;;11.50;99.90;;;;;;5090998;28;20474;-41
2023/03/24 09:05:08;;;;;;;10.10;1.40;;;11.70;99.90;;;;;;5090641;28;20048;-41
2023/03/24 09:07:34;;;;;;;10.65;1.70;;;11.50;99.90;;;;;;5091201;28;20052;-42
2023/03/24 09:10:00;;;;;;;8.52;1.27;;;11.70;99.90;;;;;;5072496;28;20109;-42
2023/03/24 09:12:26;;;;;;;7.78;1.30;;;11.90;99.90;;;;;;5090953;28;20477;-42
2023/03/24 09:14:51;;;;;;;11.27;2.05;;;12.10;99.90;;;;;;5091082;28;20100;-42
2023/03/24 09:17:17;;;;;;;14.75;1.65;;;12.70;99.90;;;;;;5091486;28;20043;-42
2023/03/24 09:19:43;;;;;;;13.30;1.48;;;12.80;99.90;;;;;;5090800;28;20103;-42
2023/03/24 09:22:10;;;;;;;6.72;1.70;;;13.30;99.90;;;;;;5091268;28;20046;-43
2023/03/24 09:24:36;;;;;;;11.10;1.10;;;13.30;99.90;;;;;;5091439;28;20079;-42
2023/03/24 09:27:02;;;;;;;9.73;1.85;;;13.80;99.90;;;;;;5086697;28;20039;-42
2023/03/24 09:29:28;;;;;;;13.23;1.83;;;14.10;99.90;;;;;;5087685;28;20082;-43
2023/03/24 09:31:55;;;;;;;9.13;1.23;;;14.40;99.90;;;;;;5087460;28;20123;-43
2023/03/24 09:34:22;;;;;;;12.18;1.55;;;15.20;99.90;;;;;;5087678;28;20047;-43
2023/03/24 09:36:48;;;;;;;17.65;1.85;;;15.70;99.90;;;;;;5087958;28;20048;-44
2023/03/24 09:39:14;;;;;;;9.00;1.10;;;13.30;99.90;;;;;;5087535;28;20036;-42
2023/03/24 09:41:44;;;;;;;8.80;1.85;;;15.70;99.90;;;;;;5083260;28;20527;-43
2023/03/24 09:44:19;;;;;;;10.18;1.40;;;16.30;99.90;;;;;;5087977;28;20072;-42
2023/03/24 09:47:00;;;;;;;7.47;1.13;;;16.90;99.90;;;;;;5087683;28;20044;-43
2023/03/24 09:49:29;;;;;;;10.15;1.25;;;17.00;99.90;;;;;;5087814;28;20055;-43
2023/03/24 09:52:22;;;;;;;9.43;1.23;;;17.10;99.90;;;;;;5069397;28;20040;-42
2023/03/24 09:54:58;;;;;;;8.95;1.20;;;17.40;96.90;;;;;;5069329;28;20415;-42
2023/03/24 09:57:39;;;;;;;14.20;2.22;;;16.70;94.30;;;;;;5087175;28;20032;-43
2023/03/24 10:00:19;;;;;;;11.82;1.33;;;15.30;94.60;;;;;;5087317;28;20036;-43
2023/03/24 10:02:45;;;;;;;6.85;1.30;;;14.20;96.10;;;;;;5087098;28;20063;-42
2023/03/24 10:05:16;;;;;;;11.88;1.85;;;13.30;98.10;;;;;;5086975;28;20143;-42
2023/03/24 10:08:16;;;;;;;18.23;1.77;;;12.70;99.90;;;;;;5087052;28;20052;-45
2023/03/24 10:11:00;;;;;;;13.45;1.95;;;12.20;99.90;;;;;;5086796;28;20036;-46
2023/03/24 10:13:55;;;;;;;12.57;1.70;;;12.20;99.90;;;;;;5067197;28;20083;-48
2023/03/24 10:16:48;;;;;;;15.07;1.88;;;12.20;99.90;;;;;;5023982;28;20132;-46
2023/03/24 10:19:32;;;;;;;8.77;1.40;;;12.60;99.90;;;;;;5082595;28;20762;-45
2023/03/24 10:22:17;;;;;;;10.75;1.58;;;13.00;99.90;;;;;;5085703;28;20060;-46
2023/03/24 10:25:11;;;;;;;8.65;1.40;;;13.60;99.90;;;;;;5085508;28;20055;-44
2023/03/24 10:27:41;;;;;;;10.52;1.90;;;13.90;99.90;;;;;;5085264;28;20056;-45
2023/03/24 10:30:19;;;;;;;13.30;1.60;;;14.40;99.90;;;;;;5084945;28;20048;-45
2023/03/24 10:32:45;;;;;;;9.40;1.33;;;15.00;99.90;;;;;;5085194;28;20044;-43
2023/03/24 10:35:22;;;;;;;9.77;1.15;;;15.30;99.50;;;;;;5087126;28;20039;-43
2023/03/24 10:37:49;;;;;;;10.10;1.92;;;15.40;98.50;;;;;;5086646;28;20044;-45
2023/03/24 10:40:32;;;;;;;16.92;1.90;;;15.50;98.20;;;;;;5069355;28;20075;-42
2023/03/24 10:43:00;;;;;;;11.80;1.40;;;15.70;96.30;;;;;;5086326;28;20105;-44
2023/03/24 10:45:42;;;;;;;9.93;1.77;;;15.60;95.90;;;;;;5084343;28;20486;-44
2023/03/24 10:48:11;;;;;;;;;;;15.30;97.00;;;;;;5085594;28;20489;-45
2023/03/24 10:50:41;;;;;;;8.65;1.05;;;14.90;98.00;;;;;;5085755;28;19924;-44
2023/03/24 10:53:29;;;;;;;9.93;1.50;;;14.70;97.50;;;;;;5085463;28;20084;-51
2023/03/24 10:55:54;;;;;;;10.88;1.27;;;14.20;95.90;;;;;;5084704;28;20052;-48
2023/03/24 10:58:36;;;;;;;11.68;1.42;;;13.90;96.60;;;;;;5084639;28;20048;-48
2023/03/24 11:01:08;;;;;;;16.50;1.83;;;13.50;96.60;;;;;;5082549;28;20135;-49
2023/03/24 11:03:36;;;;;;;12.45;1.08;;;13.60;99.70;;;;;;5083126;28;20055;-47
2023/03/24 11:06:04;;;;;;;5.90;0.98;;;13.40;99.90;;;;;;5085516;28;20040;-48
2023/03/24 11:08:40;;;;;;;12.23;2.28;;;13.30;99.90;;;;;;5083505;28;20366;-48
2023/03/24 11:11:25;;;;;;;5.68;1.00;;;13.20;98.60;;;;;;5084778;28;20040;-47
2023/03/24 11:14:00;;;;;;;9.35;1.08;;;13.00;97.70;;;;;;5085098;28;20043;-50
2023/03/24 11:16:34;;;;;;;9.43;1.40;;;12.80;99.90;;;;;;5076534;28;20393;-46
2023/03/24 11:19:05;;;;;;;6.20;0.73;;;12.80;98.00;;;;;;5083057;28;20063;-46
2023/03/24 11:21:35;;;;;;;14.40;1.65;;;12.30;99.90;;;;;;5082329;28;20078;-48
2023/03/24 11:24:07;;;;;;;6.68;0.65;;;12.50;96.80;;;;;;5083450;28;20048;-47
2023/03/24 11:26:35;;;;;;;5.32;1.27;;;12.30;96.90;;;;;;5083968;28;20044;-50
2023/03/24 11:29:26;;;;;;;10.13;1.13;;;12.20;97.00;;;;;;5083987;28;20044;-49
2023/03/24 11:31:57;;;;;;;10.07;1.25;;;12.00;97.10;;;;;;5083225;28;20565;-48
2023/03/24 11:34:40;;;;;;;10.05;0.70;;;12.20;96.80;;;;;;5083411;28;20040;-52
2023/03/24 11:37:23;;;;;;;6.97;0.70;;;12.30;97.60;;;;;;5084155;28;20561;-53
2023/03/24 11:40:15;;;;;;;5.60;0.60;;;13.00;98.00;;;;;;5083760;28;20440;-49
2023/03/24 11:43:03;;;;;;;3.95;1.13;;;12.60;96.90;;;;;;5084104;28;20131;-53
2023/03/24 11:45:31;;;;;;;6.85;0.40;;;12.60;94.00;;;;;;5083456;28;20096;-46
2023/03/24 11:48:00;;;;;;;6.00;0.70;;;12.80;99.50;;;;;;5083073;28;20584;-46
2023/03/24 11:50:36;;;;;;;1.63;0.25;;;12.70;93.80;;;;;;5083391;28;20044;-47
2023/03/24 11:53:18;;;;;;;4.60;0.80;;;12.70;93.50;;;;;;5083433;28;20493;-50
2023/03/24 11:55:52;;;;;;;7.30;0.73;;;12.80;95.10;;;;;;5084076;28;20115;-50
2023/03/24 11:58:44;;;;;;;7.13;0.73;;;12.90;95.40;;;;;;5083976;28;20119;-45
2023/03/24 12:01:19;;;;;;;9.07;1.45;;;13.00;96.00;;;;;;5082739;28;20406;-47
2023/03/24 12:04:12;;;;;;;4.43;0.60;;;13.20;95.80;;;;;;5084787;28;20056;-44
2023/03/24 12:07:13;;;;;;;10.00;0.82;;;13.00;96.50;;;;;;5084432;28;20139;-44
2023/03/24 12:10:13;;;;;;;11.00;1.55;;;13.40;97.30;;;;;;5086876;28;20048;-49
2023/03/24 12:12:48;;;;;;;4.88;0.55;;;13.60;98.20;;;;;;5084683;28;20048;-48
2023/03/24 12:15:26;;;;;;;7.05;0.55;;;13.80;97.20;;;;;;5083806;28;20504;-45
2023/03/24 12:18:29;;;;;;;11.88;0.73;;;13.90;97.20;;;;;;5075542;28;20043;-43
2023/03/24 12:21:30;;;;;;;9.30;0.88;;;14.00;97.50;;;;;;5084668;28;20051;-49
2023/03/24 12:24:19;;;;;;;5.40;0.73;;;13.90;95.90;;;;;;5045338;28;20492;-45
2023/03/24 12:26:59;;;;;;;7.60;0.70;;;13.70;96.70;;;;;;4983588;28;20495;-45
2023/03/24 12:29:51;;;;;;;12.45;0.90;;;13.50;96.50;;;;;;5078535;28;20056;-45
2023/03/24 12:32:19;;;;;;;10.73;1.52;;;13.50;96.10;;;;;;5084264;28;20060;-45
2023/03/24 12:35:17;;;;;;;6.18;0.50;;;13.60;97.40;;;;;;5083555;28;20083;-45
2023/03/24 12:38:02;;;;;;;11.23;1.42;;;13.70;95.80;;;;;;5084740;28;20044;-47
2023/03/24 12:40:52;;;;;;;11.27;1.40;;;13.80;96.60;;;;;;5084270;28;20042;-45
2023/03/24 12:43:46;;;;;;;12.52;1.35;;;13.70;96.20;;;;;;5085606;28;20044;-47
2023/03/24 12:46:36;;;;;;;5.38;0.68;;;13.70;97.00;;;;;;5084362;28;20796;-40
2023/03/24 12:49:16;;;;;;;7.03;0.60;;;13.60;96.10;;;;;;5084380;28;20047;-40
2023/03/24 12:52:03;;;;;;;12.23;1.08;;;13.30;95.10;;;;;;5084366;28;20076;-42
2023/03/24 12:54:40;;;;;;;10.85;1.88;;;13.00;95.00;;;;;;5084522;28;20054;-41
2023/03/24 12:57:16;;;;;;;5.45;0.43;;;12.90;95.10;;;;;;5084166;28;20047;-42
2023/03/24 12:59:56;;;;;;;9.70;0.90;;;13.00;95.60;;;;;;5084127;28;20047;-41
2023/03/24 13:02:44;;;;;;;5.82;1.00;;;13.10;94.90;;;;;;5087999;28;20059;-40
2023/03/24 13:05:29;;;;;;;2.80;0.47;;;13.10;92.40;;;;;;5087301;28;20089;-40
2023/03/24 13:08:01;;;;;;;4.65;0.35;;;13.10;90.60;;;;;;5087821;28;20525;-44
2023/03/24 13:10:28;;;;;;;;;;;13.00;91.50;;;;;;5087346;28;20046;-42
2023/03/24 13:13:09;;;;;;;5.90;0.60;;;13.10;91.90;;;;;;5086983;28;19923;-42
2023/03/24 13:15:44;;;;;;;4.97;0.57;;;13.20;92.00;;;;;;5087938;28;20058;-42